Terminal Aerodrome Forecast
Issued by NWS

Home | Current Version | Previous Version | Graphics & Text | Print | Product List | Glossary On
Versions: 1 2 3 4 5 6 7 8 9 10 11 12 13 14 15 16 17 18
000
FTUS43 KGRB 192323
TAFAUW
TAF
KAUW 192323Z 2000/2024 19005KT P6SM SKC
     FM200300 16005KT P6SM SKC WS012/22040KT
     FM200900 16005KT P6SM SKC
     FM201600 19010G17KT P6SM BKN250
     FM202300 16008KT P6SM BKN250=

USA.gov is the U.S. government's official web portal to all federal, state and local government web resources and services.